sensor_id;sensor_type;location;lat;lon;timestamp;pressure;altitude;pressure_sealevel;temperature;humidity
65190;BME280;51777;53.570;9.984;2022-11-12T00:02:11;102908.22;;;9.39;100.00
65190;BME280;51777;53.570;9.984;2022-11-12T00:04:36;102912.34;;;9.44;100.00
65190;BME280;51777;53.570;9.984;2022-11-12T00:07:02;102910.50;;;9.46;100.00
65190;BME280;51777;53.570;9.984;2022-11-12T00:09:27;102910.50;;;9.46;100.00
65190;BME280;51777;53.570;9.984;2022-11-12T00:11:52;102907.81;;;9.47;100.00
65190;BME280;51777;53.570;9.984;2022-11-12T00:14:18;102918.25;;;9.46;100.00
65190;BME280;51777;53.570;9.984;2022-11-12T00:16:43;102912.06;;;9.48;100.00
65190;BME280;51777;53.570;9.984;2022-11-12T00:19:08;102912.91;;;9.49;100.00
65190;BME280;51777;53.570;9.984;2022-11-12T00:21:34;102912.72;;;9.52;100.00
65190;BME280;51777;53.570;9.984;2022-11-12T00:23:59;102921.97;;;9.56;100.00
65190;BME280;51777;53.570;9.984;2022-11-12T00:26:24;102920.16;;;9.58;100.00
65190;BME280;51777;53.570;9.984;2022-11-12T00:28:50;102927.16;;;9.56;100.00
65190;BME280;51777;53.570;9.984;2022-11-12T00:31:15;102916.88;;;9.54;100.00
65190;BME280;51777;53.570;9.984;2022-11-12T00:33:41;102913.22;;;9.58;100.00
65190;BME280;51777;53.570;9.984;2022-11-12T00:36:07;102920.22;;;9.56;100.00
65190;BME280;51777;53.570;9.984;2022-11-12T00:38:33;102922.28;;;9.65;100.00
65190;BME280;51777;53.570;9.984;2022-11-12T00:40:59;102927.03;;;9.73;100.00
65190;BME280;51777;53.570;9.984;2022-11-12T00:43:24;102915.78;;;9.74;100.00
65190;BME280;51777;53.570;9.984;2022-11-12T00:45:50;102902.69;;;9.77;100.00
65190;BME280;51777;53.570;9.984;2022-11-12T00:48:15;102908.84;;;9.75;100.00
65190;BME280;51777;53.570;9.984;2022-11-12T00:50:40;102898.25;;;9.79;100.00
65190;BME280;51777;53.570;9.984;2022-11-12T00:53:06;102894.09;;;9.77;100.00
65190;BME280;51777;53.570;9.984;2022-11-12T00:55:31;102896.84;;;9.74;100.00
65190;BME280;51777;53.570;9.984;2022-11-12T00:57:57;102897.50;;;9.77;100.00
65190;BME280;51777;53.570;9.984;2022-11-12T01:00:24;102891.88;;;9.70;100.00
65190;BME280;51777;53.570;9.984;2022-11-12T01:02:49;102896.22;;;9.70;100.00
65190;BME280;51777;53.570;9.984;2022-11-12T01:05:15;102904.78;;;9.70;100.00
65190;BME280;51777;53.570;9.984;2022-11-12T01:07:41;102897.78;;;9.73;100.00
65190;BME280;51777;53.570;9.984;2022-11-12T01:10:08;102908.84;;;9.75;100.00
65190;BME280;51777;53.570;9.984;2022-11-12T01:12:34;102906.00;;;9.79;100.00
65190;BME280;51777;53.570;9.984;2022-11-12T01:15:00;102902.34;;;9.83;100.00
65190;BME280;51777;53.570;9.984;2022-11-12T01:17:25;102893.56;;;9.86;100.00
65190;BME280;51777;53.570;9.984;2022-11-12T01:19:51;102898.47;;;9.90;100.00
65190;BME280;51777;53.570;9.984;2022-11-12T01:22:16;102900.13;;;9.91;100.00
65190;BME280;51777;53.570;9.984;2022-11-12T01:24:42;102890.72;;;9.90;100.00
65190;BME280;51777;53.570;9.984;2022-11-12T01:27:07;102893.22;;;9.92;100.00
65190;BME280;51777;53.570;9.984;2022-11-12T01:29:32;102900.91;;;9.93;100.00
65190;BME280;51777;53.570;9.984;2022-11-12T01:31:58;102899.25;;;9.92;100.00
65190;BME280;51777;53.570;9.984;2022-11-12T01:34:24;102894.31;;;9.88;100.00
65190;BME280;51777;53.570;9.984;2022-11-12T01:36:49;102891.63;;;9.89;100.00
65190;BME280;51777;53.570;9.984;2022-11-12T01:39:15;102891.50;;;9.92;100.00
65190;BME280;51777;53.570;9.984;2022-11-12T01:41:40;102893.16;;;9.93;100.00
65190;BME280;51777;53.570;9.984;2022-11-12T01:46:36;102903.13;;;9.99;100.00
65190;BME280;51777;53.570;9.984;2022-11-12T01:49:09;102906.81;;;9.95;100.00
65190;BME280;51777;53.570;9.984;2022-11-12T01:51:39;102902.56;;;9.94;100.00
65190;BME280;51777;53.570;9.984;2022-11-12T01:54:08;102910.41;;;9.93;100.00
65190;BME280;51777;53.570;9.984;2022-11-12T01:56:35;102909.72;;;9.89;100.00
65190;BME280;51777;53.570;9.984;2022-11-12T01:59:09;102914.75;;;9.92;100.00
65190;BME280;51777;53.570;9.984;2022-11-12T02:01:36;102914.75;;;9.92;100.00
65190;BME280;51777;53.570;9.984;2022-11-12T02:04:02;102910.66;;;9.88;100.00
65190;BME280;51777;53.570;9.984;2022-11-12T02:06:29;102908.34;;;9.84;100.00
65190;BME280;51777;53.570;9.984;2022-11-12T02:08:59;102916.19;;;9.82;100.00
65190;BME280;51777;53.570;9.984;2022-11-12T02:11:24;102917.56;;;9.88;100.00
65190;BME280;51777;53.570;9.984;2022-11-12T02:13:51;102908.81;;;9.90;100.00
65190;BME280;51777;53.570;9.984;2022-11-12T02:16:31;102910.41;;;9.93;100.00
65190;BME280;51777;53.570;9.984;2022-11-12T02:18:57;102901.81;;;9.92;100.00
65190;BME280;51777;53.570;9.984;2022-11-12T02:21:24;102908.56;;;9.95;100.00
65190;BME280;51777;53.570;9.984;2022-11-12T02:24:30;102904.97;;;9.97;100.00
65190;BME280;51777;53.570;9.984;2022-11-12T02:26:52;102896.38;;;9.97;100.00
65190;BME280;51777;53.570;9.984;2022-11-12T02:29:18;102899.41;;;9.89;100.00
65190;BME280;51777;53.570;9.984;2022-11-12T02:31:44;102892.56;;;9.88;100.00
65190;BME280;51777;53.570;9.984;2022-11-12T02:34:09;102889.78;;;9.91;100.00
65190;BME280;51777;53.570;9.984;2022-11-12T02:36:34;102892.22;;;9.94;100.00
65190;BME280;51777;53.570;9.984;2022-11-12T02:39:00;102886.97;;;9.96;100.00
65190;BME280;51777;53.570;9.984;2022-11-12T02:41:25;102896.38;;;9.97;100.00
65190;BME280;51777;53.570;9.984;2022-11-12T02:43:51;102904.78;;;10.00;100.00
65190;BME280;51777;53.570;9.984;2022-11-12T02:46:16;102902.19;;;10.00;100.00
65190;BME280;51777;53.570;9.984;2022-11-12T02:48:42;102890.47;;;9.95;100.00
65190;BME280;51777;53.570;9.984;2022-11-12T02:51:08;102895.16;;;9.88;100.00
65190;BME280;51777;53.570;9.984;2022-11-12T02:53:33;102901.75;;;9.78;100.00
65190;BME280;51777;53.570;9.984;2022-11-12T02:55:59;102905.53;;;9.73;100.00
65190;BME280;51777;53.570;9.984;2022-11-12T02:58:26;102899.53;;;9.72;100.00
65190;BME280;51777;53.570;9.984;2022-11-12T03:00:51;102893.72;;;9.68;100.00
65190;BME280;51777;53.570;9.984;2022-11-12T03:03:17;102915.81;;;9.58;100.00
65190;BME280;51777;53.570;9.984;2022-11-12T03:05:43;102892.25;;;9.49;100.00
65190;BME280;51777;53.570;9.984;2022-11-12T03:08:09;102891.59;;;9.45;100.00
65190;BME280;51777;53.570;9.984;2022-11-12T03:10:38;102907.22;;;9.42;100.00
65190;BME280;51777;53.570;9.984;2022-11-12T03:13:05;102904.06;;;9.37;100.00
65190;BME280;51777;53.570;9.984;2022-11-12T03:15:31;102900.75;;;9.35;100.00
65190;BME280;51777;53.570;9.984;2022-11-12T03:17:57;102911.25;;;9.32;100.00
65190;BME280;51777;53.570;9.984;2022-11-12T03:20:23;102916.56;;;9.29;100.00
65190;BME280;51777;53.570;9.984;2022-11-12T03:23:00;102927.06;;;9.26;100.00
65190;BME280;51777;53.570;9.984;2022-11-12T03:25:26;102913.41;;;9.24;100.00
65190;BME280;51777;53.570;9.984;2022-11-12T03:27:57;102904.09;;;9.21;100.00
65190;BME280;51777;53.570;9.984;2022-11-12T03:30:25;102919.75;;;9.18;100.00
65190;BME280;51777;53.570;9.984;2022-11-12T03:32:50;102921.63;;;9.15;100.00
65190;BME280;51777;53.570;9.984;2022-11-12T03:35:16;102922.66;;;9.12;100.00
65190;BME280;51777;53.570;9.984;2022-11-12T03:37:41;102928.72;;;9.11;100.00
65190;BME280;51777;53.570;9.984;2022-11-12T03:40:07;102912.56;;;9.07;100.00
65190;BME280;51777;53.570;9.984;2022-11-12T03:42:32;102920.41;;;9.06;100.00
65190;BME280;51777;53.570;9.984;2022-11-12T03:44:58;102931.63;;;9.05;100.00
65190;BME280;51777;53.570;9.984;2022-11-12T03:47:23;102906.91;;;9.01;100.00
65190;BME280;51777;53.570;9.984;2022-11-12T03:49:48;102895.09;;;8.97;100.00
65190;BME280;51777;53.570;9.984;2022-11-12T03:52:14;102915.91;;;8.94;100.00
65190;BME280;51777;53.570;9.984;2022-11-12T03:54:39;102922.84;;;8.92;100.00
65190;BME280;51777;53.570;9.984;2022-11-12T03:57:04;102911.63;;;8.93;100.00
65190;BME280;51777;53.570;9.984;2022-11-12T03:59:30;102921.19;;;8.91;100.00
65190;BME280;51777;53.570;9.984;2022-11-12T04:01:55;102935.84;;;8.90;100.00
65190;BME280;51777;53.570;9.984;2022-11-12T04:04:20;102917.88;;;8.89;100.00
65190;BME280;51777;53.570;9.984;2022-11-12T04:06:46;102919.69;;;8.87;100.00
65190;BME280;51777;53.570;9.984;2022-11-12T04:09:30;102930.03;;;8.87;100.00
65190;BME280;51777;53.570;9.984;2022-11-12T04:11:55;102935.34;;;8.83;100.00
65190;BME280;51777;53.570;9.984;2022-11-12T04:14:40;102935.47;;;8.80;100.00
65190;BME280;51777;53.570;9.984;2022-11-12T04:17:06;102932.25;;;8.77;100.00
65190;BME280;51777;53.570;9.984;2022-11-12T04:19:53;102942.63;;;8.75;100.00
65190;BME280;51777;53.570;9.984;2022-11-12T04:22:37;102940.16;;;8.74;100.00
65190;BME280;51777;53.570;9.984;2022-11-12T04:25:02;102921.34;;;8.72;100.00
65190;BME280;51777;53.570;9.984;2022-11-12T04:27:46;102930.91;;;8.70;100.00
65190;BME280;51777;53.570;9.984;2022-11-12T04:30:11;102920.69;;;8.68;100.00
65190;BME280;51777;53.570;9.984;2022-11-12T04:32:53;102919.97;;;8.65;100.00
65190;BME280;51777;53.570;9.984;2022-11-12T04:35:21;102931.22;;;8.64;100.00
65190;BME280;51777;53.570;9.984;2022-11-12T04:37:47;102932.22;;;8.61;100.00
65190;BME280;51777;53.570;9.984;2022-11-12T04:42:56;102939.41;;;8.54;100.00
65190;BME280;51777;53.570;9.984;2022-11-12T04:45:41;102942.06;;;8.53;100.00
65190;BME280;51777;53.570;9.984;2022-11-12T04:48:07;102935.16;;;8.53;100.00
65190;BME280;51777;53.570;9.984;2022-11-12T04:50:33;102936.91;;;8.53;100.00
65190;BME280;51777;53.570;9.984;2022-11-12T04:52:59;102928.44;;;8.51;100.00
65190;BME280;51777;53.570;9.984;2022-11-12T04:55:24;102930.25;;;8.49;100.00
65190;BME280;51777;53.570;9.984;2022-11-12T04:57:49;102939.81;;;8.47;100.00
65190;BME280;51777;53.570;9.984;2022-11-12T05:00:15;102927.91;;;8.44;100.00
65190;BME280;51777;53.570;9.984;2022-11-12T05:02:41;102930.72;;;8.40;100.00
65190;BME280;51777;53.570;9.984;2022-11-12T05:05:06;102932.53;;;8.38;100.00
65190;BME280;51777;53.570;9.984;2022-11-12T05:07:32;102942.84;;;8.38;100.00
65190;BME280;51777;53.570;9.984;2022-11-12T05:09:58;102935.13;;;8.38;100.00
65190;BME280;51777;53.570;9.984;2022-11-12T05:12:23;102948.09;;;8.36;100.00
65190;BME280;51777;53.570;9.984;2022-11-12T05:14:48;102929.34;;;8.33;100.00
65190;BME280;51777;53.570;9.984;2022-11-12T05:17:14;102917.22;;;8.35;100.00
65190;BME280;51777;53.570;9.984;2022-11-12T05:19:39;102919.84;;;8.33;100.00
65190;BME280;51777;53.570;9.984;2022-11-12T05:22:04;102934.63;;;8.30;100.00
65190;BME280;51777;53.570;9.984;2022-11-12T05:24:37;102927.97;;;8.25;100.00
65190;BME280;51777;53.570;9.984;2022-11-12T05:27:05;102922.97;;;8.22;100.00
65190;BME280;51777;53.570;9.984;2022-11-12T05:29:31;102933.13;;;8.25;100.00
65190;BME280;51777;53.570;9.984;2022-11-12T05:31:56;102929.78;;;8.23;100.00
65190;BME280;51777;53.570;9.984;2022-11-12T05:34:22;102928.19;;;8.21;100.00
65190;BME280;51777;53.570;9.984;2022-11-12T05:36:48;102933.44;;;8.19;100.00
65190;BME280;51777;53.570;9.984;2022-11-12T05:39:13;102926.75;;;8.15;100.00
65190;BME280;51777;53.570;9.984;2022-11-12T05:41:38;102930.41;;;8.11;100.00
65190;BME280;51777;53.570;9.984;2022-11-12T05:44:04;102925.41;;;8.08;100.00
65190;BME280;51777;53.570;9.984;2022-11-12T05:46:29;102933.25;;;8.05;100.00
65190;BME280;51777;53.570;9.984;2022-11-12T05:48:55;102945.53;;;8.00;100.00
65190;BME280;51777;53.570;9.984;2022-11-12T05:51:28;102946.59;;;7.96;100.00
65190;BME280;51777;53.570;9.984;2022-11-12T05:53:53;102940.63;;;7.95;100.00
65190;BME280;51777;53.570;9.984;2022-11-12T05:56:19;102930.53;;;7.91;100.00
65190;BME280;51777;53.570;9.984;2022-11-12T05:58:44;102926.34;;;7.88;100.00
65190;BME280;51777;53.570;9.984;2022-11-12T06:01:10;102931.59;;;7.87;100.00
65190;BME280;51777;53.570;9.984;2022-11-12T06:03:35;102952.94;;;7.89;100.00
65190;BME280;51777;53.570;9.984;2022-11-12T06:06:00;102954.75;;;7.87;100.00
65190;BME280;51777;53.570;9.984;2022-11-12T06:08:26;102948.03;;;7.84;100.00
65190;BME280;51777;53.570;9.984;2022-11-12T06:10:53;102934.53;;;7.79;100.00
65190;BME280;51777;53.570;9.984;2022-11-12T06:13:20;102951.50;;;7.83;100.00
65190;BME280;51777;53.570;9.984;2022-11-12T06:15:46;102969.47;;;7.85;100.00
65190;BME280;51777;53.570;9.984;2022-11-12T06:18:11;102962.00;;;7.79;100.00
65190;BME280;51777;53.570;9.984;2022-11-12T06:20:40;102954.38;;;7.77;100.00
65190;BME280;51777;53.570;9.984;2022-11-12T06:23:05;102959.66;;;7.74;100.00
65190;BME280;51777;53.570;9.984;2022-11-12T06:25:31;102956.53;;;7.68;100.00
65190;BME280;51777;53.570;9.984;2022-11-12T06:27:56;102951.69;;;7.61;100.00
65190;BME280;51777;53.570;9.984;2022-11-12T06:30:22;102963.81;;;7.59;100.00
65190;BME280;51777;53.570;9.984;2022-11-12T06:32:49;102961.16;;;7.61;100.00
65190;BME280;51777;53.570;9.984;2022-11-12T06:35:16;102959.81;;;7.52;100.00
65190;BME280;51777;53.570;9.984;2022-11-12T06:37:44;102966.94;;;7.47;100.00
65190;BME280;51777;53.570;9.984;2022-11-12T06:40:10;102972.16;;;7.46;100.00
65190;BME280;51777;53.570;9.984;2022-11-12T06:42:35;102973.25;;;7.40;100.00
65190;BME280;51777;53.570;9.984;2022-11-12T06:45:01;102963.78;;;7.41;100.00
65190;BME280;51777;53.570;9.984;2022-11-12T06:47:26;102964.63;;;7.41;100.00
65190;BME280;51777;53.570;9.984;2022-11-12T06:49:52;102977.50;;;7.41;100.00
65190;BME280;51777;53.570;9.984;2022-11-12T06:52:17;102970.69;;;7.40;100.00
65190;BME280;51777;53.570;9.984;2022-11-12T06:54:43;102983.56;;;7.40;100.00
65190;BME280;51777;53.570;9.984;2022-11-12T06:57:08;102985.22;;;7.41;100.00
65190;BME280;51777;53.570;9.984;2022-11-12T06:59:33;102984.31;;;7.42;100.00
65190;BME280;51777;53.570;9.984;2022-11-12T07:01:59;102984.19;;;7.45;100.00
65190;BME280;51777;53.570;9.984;2022-11-12T07:04:24;102990.94;;;7.48;100.00
65190;BME280;51777;53.570;9.984;2022-11-12T07:06:50;102986.69;;;7.47;100.00
65190;BME280;51777;53.570;9.984;2022-11-12T07:09:15;102994.13;;;7.53;100.00
65190;BME280;51777;53.570;9.984;2022-11-12T07:11:41;102991.56;;;7.53;100.00
65190;BME280;51777;53.570;9.984;2022-11-12T07:14:06;102984.75;;;7.52;100.00
65190;BME280;51777;53.570;9.984;2022-11-12T07:16:32;102988.28;;;7.49;100.00
65190;BME280;51777;53.570;9.984;2022-11-12T07:18:58;102990.09;;;7.47;100.00
65190;BME280;51777;53.570;9.984;2022-11-12T07:21:24;102989.97;;;7.50;100.00
65190;BME280;51777;53.570;9.984;2022-11-12T07:23:49;102994.06;;;7.54;100.00
65190;BME280;51777;53.570;9.984;2022-11-12T07:26:22;102997.47;;;7.55;100.00
65190;BME280;51777;53.570;9.984;2022-11-12T07:28:49;103007.63;;;7.58;100.00
65190;BME280;51777;53.570;9.984;2022-11-12T07:31:16;103001.66;;;7.57;100.00
65190;BME280;51777;53.570;9.984;2022-11-12T07:33:43;103006.59;;;7.62;100.00
65190;BME280;51777;53.570;9.984;2022-11-12T07:36:11;103005.59;;;7.64;100.00
65190;BME280;51777;53.570;9.984;2022-11-12T07:38:38;103007.00;;;7.72;100.00
65190;BME280;51777;53.570;9.984;2022-11-12T07:43:35;103002.47;;;7.77;100.00
65190;BME280;51777;53.570;9.984;2022-11-12T07:48:31;103008.38;;;7.79;100.00
65190;BME280;51777;53.570;9.984;2022-11-12T07:51:04;103003.97;;;7.81;100.00
65190;BME280;51777;53.570;9.984;2022-11-12T07:53:30;103012.50;;;7.83;100.00
65190;BME280;51777;53.570;9.984;2022-11-12T07:55:57;103007.03;;;7.89;100.00
65190;BME280;51777;53.570;9.984;2022-11-12T07:58:23;102996.59;;;7.92;100.00
65190;BME280;51777;53.570;9.984;2022-11-12T08:00:50;102996.72;;;7.89;100.00
65190;BME280;51777;53.570;9.984;2022-11-12T08:03:16;103005.94;;;7.94;100.00
65190;BME280;51777;53.570;9.984;2022-11-12T08:05:41;103015.03;;;8.02;100.00
65190;BME280;51777;53.570;9.984;2022-11-12T08:08:06;103015.66;;;8.07;100.00
65190;BME280;51777;53.570;9.984;2022-11-12T08:10:32;103016.25;;;8.12;100.00
65190;BME280;51777;53.570;9.984;2022-11-12T08:12:57;103010.03;;;8.16;100.00
65190;BME280;51777;53.570;9.984;2022-11-12T08:15:23;103012.53;;;8.17;100.00
65190;BME280;51777;53.570;9.984;2022-11-12T08:17:48;103020.81;;;8.24;100.00
65190;BME280;51777;53.570;9.984;2022-11-12T08:20:13;103020.50;;;8.30;100.00
65190;BME280;51777;53.570;9.984;2022-11-12T08:22:39;103017.81;;;8.33;100.00
65190;BME280;51777;53.570;9.984;2022-11-12T08:25:05;103017.75;;;8.35;100.00
65190;BME280;51777;53.570;9.984;2022-11-12T08:27:31;103025.25;;;8.39;100.00
65190;BME280;51777;53.570;9.984;2022-11-12T08:29:57;103025.94;;;8.43;100.00
65190;BME280;51777;53.570;9.984;2022-11-12T08:32:23;103020.50;;;8.49;100.00
65190;BME280;51777;53.570;9.984;2022-11-12T08:34:48;103029.44;;;8.59;100.00
65190;BME280;51777;53.570;9.984;2022-11-12T08:37:14;103029.00;;;8.68;100.00
65190;BME280;51777;53.570;9.984;2022-11-12T08:39:39;103024.59;;;8.70;100.00
65190;BME280;51777;53.570;9.984;2022-11-12T08:42:05;103026.00;;;8.76;100.00
65190;BME280;51777;53.570;9.984;2022-11-12T08:44:30;103039.38;;;8.84;100.00
65190;BME280;51777;53.570;9.984;2022-11-12T08:46:55;103043.38;;;8.90;100.00
65190;BME280;51777;53.570;9.984;2022-11-12T08:49:21;103042.44;;;8.91;100.00
65190;BME280;51777;53.570;9.984;2022-11-12T08:51:46;103043.53;;;8.87;100.00
65190;BME280;51777;53.570;9.984;2022-11-12T08:54:12;103053.69;;;8.90;100.00
65190;BME280;51777;53.570;9.984;2022-11-12T08:56:37;103060.38;;;8.94;100.00
65190;BME280;51777;53.570;9.984;2022-11-12T08:59:04;103047.22;;;8.98;100.00
65190;BME280;51777;53.570;9.984;2022-11-12T09:01:29;103038.41;;;9.02;100.00
65190;BME280;51777;53.570;9.984;2022-11-12T09:03:55;103047.59;;;9.08;100.00
65190;BME280;51777;53.570;9.984;2022-11-12T09:06:20;103060.19;;;9.14;100.00
65190;BME280;51777;53.570;9.984;2022-11-12T09:08:46;103053.97;;;9.18;100.00
65190;BME280;51777;53.570;9.984;2022-11-12T09:11:11;103058.88;;;9.23;100.00
65190;BME280;51777;53.570;9.984;2022-11-12T09:13:36;103044.88;;;9.27;100.00
65190;BME280;51777;53.570;9.984;2022-11-12T09:16:04;103053.25;;;9.32;100.00
65190;BME280;51777;53.570;9.984;2022-11-12T09:18:30;103059.81;;;9.37;100.00
65190;BME280;51777;53.570;9.984;2022-11-12T09:21:08;103053.00;;;9.36;100.00
65190;BME280;51777;53.570;9.984;2022-11-12T09:23:35;103038.16;;;9.40;100.00
65190;BME280;51777;53.570;9.984;2022-11-12T09:26:01;103052.34;;;9.49;100.00
65190;BME280;51777;53.570;9.984;2022-11-12T09:28:27;103058.88;;;9.56;100.00
65190;BME280;51777;53.570;9.984;2022-11-12T09:30:53;103054.28;;;9.61;100.00
65190;BME280;51777;53.570;9.984;2022-11-12T09:33:22;103049.53;;;9.69;100.00
65190;BME280;51777;53.570;9.984;2022-11-12T09:35:49;103053.53;;;9.75;100.00
65190;BME280;51777;53.570;9.984;2022-11-12T09:38:15;103055.84;;;9.79;100.00
65190;BME280;51777;53.570;9.984;2022-11-12T09:45:48;103057.44;;;9.97;100.00
65190;BME280;51777;53.570;9.984;2022-11-12T09:48:18;103060.50;;;10.04;100.00
65190;BME280;51777;53.570;9.984;2022-11-12T09:51:08;103061.00;;;10.11;100.00
65190;BME280;51777;53.570;9.984;2022-11-12T09:56:18;103055.19;;;10.23;100.00
65190;BME280;51777;53.570;9.984;2022-11-12T09:58:44;103054.19;;;10.25;100.00
65190;BME280;51777;53.570;9.984;2022-11-12T10:06:18;103059.31;;;10.41;100.00
65190;BME280;51777;53.570;9.984;2022-11-12T10:09:10;103056.66;;;10.43;100.00
65190;BME280;51777;53.570;9.984;2022-11-12T10:17:56;103055.19;;;10.53;100.00
65190;BME280;51777;53.570;9.984;2022-11-12T10:20:39;103060.13;;;10.57;100.00
65190;BME280;51777;53.570;9.984;2022-11-12T10:23:21;103071.75;;;10.65;100.00
65190;BME280;51777;53.570;9.984;2022-11-12T10:25:49;103069.38;;;10.76;100.00
65190;BME280;51777;53.570;9.984;2022-11-12T10:28:37;103069.03;;;10.82;100.00
65190;BME280;51777;53.570;9.984;2022-11-12T10:31:14;103078.09;;;10.89;100.00
65190;BME280;51777;53.570;9.984;2022-11-12T10:33:44;103077.75;;;10.95;100.00
65190;BME280;51777;53.570;9.984;2022-11-12T10:36:27;103078.28;;;11.00;100.00
65190;BME280;51777;53.570;9.984;2022-11-12T10:38:54;103083.28;;;11.03;100.00
65190;BME280;51777;53.570;9.984;2022-11-12T10:41:30;103076.28;;;11.05;100.00
65190;BME280;51777;53.570;9.984;2022-11-12T10:44:04;103072.78;;;11.06;100.00
65190;BME280;51777;53.570;9.984;2022-11-12T10:46:34;103087.19;;;11.10;100.00
65190;BME280;51777;53.570;9.984;2022-11-12T10:49:04;103087.56;;;11.18;100.00
65190;BME280;51777;53.570;9.984;2022-11-12T10:51:35;103082.13;;;11.23;100.00
65190;BME280;51777;53.570;9.984;2022-11-12T10:54:24;103068.72;;;11.31;100.00
65190;BME280;51777;53.570;9.984;2022-11-12T10:56:52;103064.63;;;11.41;100.00
65190;BME280;51777;53.570;9.984;2022-11-12T10:59:19;103064.16;;;11.48;100.00
65190;BME280;51777;53.570;9.984;2022-11-12T11:01:52;103072.56;;;11.52;100.00
65190;BME280;51777;53.570;9.984;2022-11-12T11:04:28;103071.47;;;11.56;100.00
65190;BME280;51777;53.570;9.984;2022-11-12T11:06:59;103060.91;;;11.59;100.00
65190;BME280;51777;53.570;9.984;2022-11-12T11:09:26;103053.88;;;11.61;100.00
65190;BME280;51777;53.570;9.984;2022-11-12T11:11:52;103062.28;;;11.65;100.00
65190;BME280;51777;53.570;9.984;2022-11-12T11:16:53;103074.03;;;11.70;100.00
65190;BME280;51777;53.570;9.984;2022-11-12T11:19:34;103060.78;;;11.75;100.00
65190;BME280;51777;53.570;9.984;2022-11-12T11:25:09;103062.88;;;11.97;100.00
65190;BME280;51777;53.570;9.984;2022-11-12T11:28:31;103052.09;;;12.17;100.00
65190;BME280;51777;53.570;9.984;2022-11-12T11:30:45;103043.09;;;12.35;100.00
65190;BME280;51777;53.570;9.984;2022-11-12T11:33:18;103049.75;;;12.52;100.00
65190;BME280;51777;53.570;9.984;2022-11-12T11:39:24;103058.22;;;12.94;100.00
65190;BME280;51777;53.570;9.984;2022-11-12T11:42:40;103059.25;;;13.04;100.00
65190;BME280;51777;53.570;9.984;2022-11-12T11:47:42;103064.03;;;13.23;100.00
65190;BME280;51777;53.570;9.984;2022-11-12T11:50:18;103062.69;;;13.30;100.00
65190;BME280;51777;53.570;9.984;2022-11-12T11:55:52;103062.88;;;13.52;99.43
65190;BME280;51777;53.570;9.984;2022-11-12T11:58:48;103064.59;;;13.65;97.79
65190;BME280;51777;53.570;9.984;2022-11-12T12:09:47;103072.47;;;13.63;97.35
65190;BME280;51777;53.570;9.984;2022-11-12T12:15:54;103062.78;;;13.41;98.37
65190;BME280;51777;53.570;9.984;2022-11-12T12:21:18;103065.53;;;13.27;99.73
65190;BME280;51777;53.570;9.984;2022-11-12T12:26:20;103064.94;;;13.47;99.37
65190;BME280;51777;53.570;9.984;2022-11-12T12:28:55;103061.47;;;13.60;98.21
65190;BME280;51777;53.570;9.984;2022-11-12T12:31:28;103057.00;;;13.62;97.74
65190;BME280;51777;53.570;9.984;2022-11-12T12:33:58;103051.88;;;13.73;97.56
65190;BME280;51777;53.570;9.984;2022-11-12T12:36:36;103048.34;;;13.74;97.22
65190;BME280;51777;53.570;9.984;2022-11-12T12:41:44;103042.63;;;13.69;97.81
65190;BME280;51777;53.570;9.984;2022-11-12T12:44:12;103040.53;;;13.74;97.90
65190;BME280;51777;53.570;9.984;2022-11-12T12:46:42;103039.00;;;13.71;97.92
65190;BME280;51777;53.570;9.984;2022-11-12T12:49:16;103032.63;;;13.75;97.72
65190;BME280;51777;53.570;9.984;2022-11-12T12:51:43;103031.59;;;13.78;99.58
65190;BME280;51777;53.570;9.984;2022-11-12T12:57:01;103018.22;;;13.59;98.67
65190;BME280;51777;53.570;9.984;2022-11-12T12:59:27;103013.47;;;13.52;99.33
65190;BME280;51777;53.570;9.984;2022-11-12T13:01:58;103016.00;;;13.41;98.63
65190;BME280;51777;53.570;9.984;2022-11-12T13:04:51;103017.16;;;13.25;100.00
65190;BME280;51777;53.570;9.984;2022-11-12T13:07:19;103013.50;;;13.14;100.00
65190;BME280;51777;53.570;9.984;2022-11-12T13:09:47;103003.03;;;13.16;100.00
65190;BME280;51777;53.570;9.984;2022-11-12T13:12:15;103010.66;;;13.19;100.00
65190;BME280;51777;53.570;9.984;2022-11-12T13:25:23;103013.34;;;13.05;100.00
65190;BME280;51777;53.570;9.984;2022-11-12T13:37:51;102990.28;;;13.00;100.00
65190;BME280;51777;53.570;9.984;2022-11-12T13:40:29;102990.72;;;12.94;100.00
65190;BME280;51777;53.570;9.984;2022-11-12T13:43:10;102986.13;;;12.98;100.00
65190;BME280;51777;53.570;9.984;2022-11-12T13:45:53;102984.34;;;12.98;100.00
65190;BME280;51777;53.570;9.984;2022-11-12T13:50:52;102981.34;;;13.04;100.00
65190;BME280;51777;53.570;9.984;2022-11-12T13:53:22;102986.66;;;13.03;100.00
65190;BME280;51777;53.570;9.984;2022-11-12T13:55:50;102984.47;;;12.97;100.00
65190;BME280;51777;53.570;9.984;2022-11-12T13:58:30;102975.13;;;12.94;100.00
65190;BME280;51777;53.570;9.984;2022-11-12T14:00:58;102975.63;;;12.99;100.00
65190;BME280;51777;53.570;9.984;2022-11-12T14:03:44;102975.53;;;12.88;100.00
65190;BME280;51777;53.570;9.984;2022-11-12T14:06:18;102983.66;;;12.83;100.00
65190;BME280;51777;53.570;9.984;2022-11-12T14:20:26;102960.41;;;12.69;100.00
65190;BME280;51777;53.570;9.984;2022-11-12T14:22:54;102966.31;;;12.71;100.00
65190;BME280;51777;53.570;9.984;2022-11-12T14:25:23;102969.34;;;12.65;100.00
65190;BME280;51777;53.570;9.984;2022-11-12T14:27:51;102968.69;;;12.61;100.00
65190;BME280;51777;53.570;9.984;2022-11-12T14:30:22;102966.00;;;12.50;100.00
65190;BME280;51777;53.570;9.984;2022-11-12T14:32:56;102965.38;;;12.47;100.00
65190;BME280;51777;53.570;9.984;2022-11-12T14:35:34;102964.13;;;12.40;100.00
65190;BME280;51777;53.570;9.984;2022-11-12T14:38:31;102964.66;;;12.32;100.00